sensor_id;sensor_type;location;lat;lon;timestamp;P1;durP1;ratioP1;P2;durP2;ratioP2
77262;SDS011;66373;52.334;4.806;2024-03-17T00:01:00;9.27;;;4.60;;
77262;SDS011;66373;52.334;4.806;2024-03-17T00:03:27;5.55;;;4.40;;
77262;SDS011;66373;52.334;4.806;2024-03-17T00:05:57;6.50;;;4.32;;
77262;SDS011;66373;52.334;4.806;2024-03-17T00:08:26;6.82;;;4.43;;
77262;SDS011;66373;52.334;4.806;2024-03-17T00:10:53;5.22;;;3.83;;
77262;SDS011;66373;52.334;4.806;2024-03-17T00:13:20;6.22;;;4.28;;
77262;SDS011;66373;52.334;4.806;2024-03-17T00:15:48;6.18;;;3.88;;
77262;SDS011;66373;52.334;4.806;2024-03-17T00:18:14;5.72;;;4.15;;
77262;SDS011;66373;52.334;4.806;2024-03-17T00:20:41;7.35;;;4.43;;
77262;SDS011;66373;52.334;4.806;2024-03-17T00:23:08;5.90;;;4.03;;
77262;SDS011;66373;52.334;4.806;2024-03-17T00:25:38;7.15;;;3.90;;
77262;SDS011;66373;52.334;4.806;2024-03-17T00:28:05;7.05;;;3.97;;
77262;SDS011;66373;52.334;4.806;2024-03-17T00:30:33;5.68;;;3.92;;
77262;SDS011;66373;52.334;4.806;2024-03-17T00:32:59;6.15;;;3.85;;
77262;SDS011;66373;52.334;4.806;2024-03-17T00:35:26;5.32;;;3.90;;
77262;SDS011;66373;52.334;4.806;2024-03-17T00:37:52;5.47;;;3.90;;
77262;SDS011;66373;52.334;4.806;2024-03-17T00:40:20;4.93;;;3.67;;
77262;SDS011;66373;52.334;4.806;2024-03-17T00:42:49;7.03;;;3.67;;
77262;SDS011;66373;52.334;4.806;2024-03-17T00:45:17;6.70;;;3.90;;
77262;SDS011;66373;52.334;4.806;2024-03-17T00:47:43;7.15;;;4.18;;
77262;SDS011;66373;52.334;4.806;2024-03-17T00:50:10;4.88;;;3.88;;
77262;SDS011;66373;52.334;4.806;2024-03-17T00:52:37;5.82;;;3.67;;
77262;SDS011;66373;52.334;4.806;2024-03-17T00:55:04;5.45;;;3.63;;
77262;SDS011;66373;52.334;4.806;2024-03-17T00:57:31;4.00;;;3.50;;
77262;SDS011;66373;52.334;4.806;2024-03-17T00:59:59;5.50;;;3.28;;
77262;SDS011;66373;52.334;4.806;2024-03-17T01:02:25;5.93;;;3.60;;
77262;SDS011;66373;52.334;4.806;2024-03-17T01:04:53;6.25;;;3.60;;
77262;SDS011;66373;52.334;4.806;2024-03-17T01:07:19;4.28;;;3.67;;
77262;SDS011;66373;52.334;4.806;2024-03-17T01:09:46;4.93;;;3.65;;
77262;SDS011;66373;52.334;4.806;2024-03-17T01:12:13;4.25;;;3.38;;
77262;SDS011;66373;52.334;4.806;2024-03-17T01:14:40;6.13;;;3.50;;
77262;SDS011;66373;52.334;4.806;2024-03-17T01:17:08;6.03;;;3.80;;
77262;SDS011;66373;52.334;4.806;2024-03-17T01:19:35;4.85;;;3.50;;
77262;SDS011;66373;52.334;4.806;2024-03-17T01:22:01;6.63;;;3.50;;
77262;SDS011;66373;52.334;4.806;2024-03-17T01:24:28;4.38;;;3.30;;
77262;SDS011;66373;52.334;4.806;2024-03-17T01:26:57;5.90;;;3.97;;
77262;SDS011;66373;52.334;4.806;2024-03-17T01:29:25;4.47;;;3.30;;
77262;SDS011;66373;52.334;4.806;2024-03-17T01:31:51;5.13;;;3.25;;
77262;SDS011;66373;52.334;4.806;2024-03-17T01:34:20;4.35;;;3.20;;
77262;SDS011;66373;52.334;4.806;2024-03-17T01:36:46;3.30;;;3.00;;
77262;SDS011;66373;52.334;4.806;2024-03-17T01:39:13;3.30;;;3.00;;
77262;SDS011;66373;52.334;4.806;2024-03-17T01:41:41;3.83;;;3.42;;
77262;SDS011;66373;52.334;4.806;2024-03-17T01:44:10;6.53;;;3.03;;
77262;SDS011;66373;52.334;4.806;2024-03-17T01:46:47;4.97;;;3.00;;
77262;SDS011;66373;52.334;4.806;2024-03-17T01:49:15;4.13;;;3.10;;
77262;SDS011;66373;52.334;4.806;2024-03-17T01:51:43;3.33;;;3.03;;
77262;SDS011;66373;52.334;4.806;2024-03-17T01:54:11;3.80;;;2.80;;
77262;SDS011;66373;52.334;4.806;2024-03-17T01:56:38;3.08;;;2.75;;
77262;SDS011;66373;52.334;4.806;2024-03-17T01:59:05;3.13;;;2.65;;
77262;SDS011;66373;52.334;4.806;2024-03-17T02:01:33;4.10;;;3.08;;
77262;SDS011;66373;52.334;4.806;2024-03-17T02:04:00;3.15;;;2.85;;
77262;SDS011;66373;52.334;4.806;2024-03-17T02:06:27;3.75;;;3.15;;
77262;SDS011;66373;52.334;4.806;2024-03-17T02:08:55;4.00;;;2.90;;
77262;SDS011;66373;52.334;4.806;2024-03-17T02:11:25;3.75;;;2.75;;
77262;SDS011;66373;52.334;4.806;2024-03-17T02:13:54;3.50;;;2.80;;
77262;SDS011;66373;52.334;4.806;2024-03-17T02:16:21;4.30;;;2.70;;
77262;SDS011;66373;52.334;4.806;2024-03-17T02:18:48;3.70;;;2.55;;
77262;SDS011;66373;52.334;4.806;2024-03-17T02:21:15;3.20;;;2.53;;
77262;SDS011;66373;52.334;4.806;2024-03-17T02:23:43;3.63;;;2.75;;
77262;SDS011;66373;52.334;4.806;2024-03-17T02:26:10;4.00;;;2.67;;
77262;SDS011;66373;52.334;4.806;2024-03-17T02:28:40;3.92;;;2.67;;
77262;SDS011;66373;52.334;4.806;2024-03-17T02:31:08;3.53;;;2.63;;
77262;SDS011;66373;52.334;4.806;2024-03-17T02:33:36;3.90;;;2.45;;
77262;SDS011;66373;52.334;4.806;2024-03-17T02:36:04;3.45;;;2.80;;
77262;SDS011;66373;52.334;4.806;2024-03-17T02:38:32;4.57;;;2.55;;
77262;SDS011;66373;52.334;4.806;2024-03-17T02:41:18;2.78;;;2.58;;
77262;SDS011;66373;52.334;4.806;2024-03-17T02:43:46;3.50;;;2.55;;
77262;SDS011;66373;52.334;4.806;2024-03-17T02:46:13;2.83;;;2.63;;
77262;SDS011;66373;52.334;4.806;2024-03-17T02:48:41;3.08;;;2.70;;
77262;SDS011;66373;52.334;4.806;2024-03-17T02:51:10;5.35;;;2.70;;
77262;SDS011;66373;52.334;4.806;2024-03-17T02:53:40;3.17;;;2.85;;
77262;SDS011;66373;52.334;4.806;2024-03-17T02:56:07;4.00;;;2.78;;
77262;SDS011;66373;52.334;4.806;2024-03-17T02:58:36;5.25;;;2.70;;
77262;SDS011;66373;52.334;4.806;2024-03-17T03:01:05;2.20;;;2.00;;
77262;SDS011;66373;52.334;4.806;2024-03-17T03:03:32;2.97;;;2.38;;
77262;SDS011;66373;52.334;4.806;2024-03-17T03:06:00;2.58;;;2.38;;
77262;SDS011;66373;52.334;4.806;2024-03-17T03:08:29;3.65;;;2.30;;
77262;SDS011;66373;52.334;4.806;2024-03-17T03:10:56;3.25;;;2.30;;
77262;SDS011;66373;52.334;4.806;2024-03-17T03:13:23;3.85;;;3.13;;
77262;SDS011;66373;52.334;4.806;2024-03-17T03:15:52;3.03;;;2.35;;
77262;SDS011;66373;52.334;4.806;2024-03-17T03:18:19;2.72;;;2.50;;
77262;SDS011;66373;52.334;4.806;2024-03-17T03:20:50;2.50;;;2.05;;
77262;SDS011;66373;52.334;4.806;2024-03-17T03:23:18;2.90;;;2.35;;
77262;SDS011;66373;52.334;4.806;2024-03-17T03:25:45;2.58;;;2.10;;
77262;SDS011;66373;52.334;4.806;2024-03-17T03:28:13;3.33;;;2.47;;
77262;SDS011;66373;52.334;4.806;2024-03-17T03:30:40;3.42;;;2.30;;
77262;SDS011;66373;52.334;4.806;2024-03-17T03:33:08;3.40;;;2.25;;
77262;SDS011;66373;52.334;4.806;2024-03-17T03:35:35;3.53;;;2.25;;
77262;SDS011;66373;52.334;4.806;2024-03-17T03:38:03;3.90;;;2.25;;
77262;SDS011;66373;52.334;4.806;2024-03-17T03:40:30;2.45;;;2.20;;
77262;SDS011;66373;52.334;4.806;2024-03-17T03:42:58;4.32;;;2.33;;
77262;SDS011;66373;52.334;4.806;2024-03-17T03:45:25;2.50;;;2.20;;
77262;SDS011;66373;52.334;4.806;2024-03-17T03:47:52;2.70;;;2.17;;
77262;SDS011;66373;52.334;4.806;2024-03-17T03:50:21;2.55;;;2.33;;
77262;SDS011;66373;52.334;4.806;2024-03-17T03:52:49;3.03;;;2.60;;
77262;SDS011;66373;52.334;4.806;2024-03-17T03:55:16;3.25;;;2.30;;
77262;SDS011;66373;52.334;4.806;2024-03-17T03:57:45;4.80;;;2.20;;
77262;SDS011;66373;52.334;4.806;2024-03-17T04:00:13;2.30;;;2.10;;
77262;SDS011;66373;52.334;4.806;2024-03-17T04:02:41;2.25;;;2.00;;
77262;SDS011;66373;52.334;4.806;2024-03-17T04:05:09;2.33;;;2.13;;
77262;SDS011;66373;52.334;4.806;2024-03-17T04:07:38;2.30;;;1.90;;
77262;SDS011;66373;52.334;4.806;2024-03-17T04:10:06;3.40;;;2.47;;
77262;SDS011;66373;52.334;4.806;2024-03-17T04:12:33;2.20;;;2.00;;
77262;SDS011;66373;52.334;4.806;2024-03-17T04:15:00;4.00;;;2.40;;
77262;SDS011;66373;52.334;4.806;2024-03-17T04:17:28;3.45;;;2.22;;
77262;SDS011;66373;52.334;4.806;2024-03-17T04:19:55;3.22;;;2.40;;
77262;SDS011;66373;52.334;4.806;2024-03-17T04:22:22;3.38;;;2.20;;
77262;SDS011;66373;52.334;4.806;2024-03-17T04:24:51;2.20;;;2.00;;
77262;SDS011;66373;52.334;4.806;2024-03-17T04:27:19;2.72;;;2.33;;
77262;SDS011;66373;52.334;4.806;2024-03-17T04:29:47;3.08;;;2.10;;
77262;SDS011;66373;52.334;4.806;2024-03-17T04:32:14;2.38;;;2.20;;
77262;SDS011;66373;52.334;4.806;2024-03-17T04:34:41;2.20;;;2.00;;
77262;SDS011;66373;52.334;4.806;2024-03-17T04:37:09;2.53;;;2.28;;
77262;SDS011;66373;52.334;4.806;2024-03-17T04:39:38;2.47;;;2.10;;
77262;SDS011;66373;52.334;4.806;2024-03-17T04:42:06;2.58;;;2.05;;
77262;SDS011;66373;52.334;4.806;2024-03-17T04:44:34;2.45;;;2.20;;
77262;SDS011;66373;52.334;4.806;2024-03-17T04:47:01;3.03;;;1.88;;
77262;SDS011;66373;52.334;4.806;2024-03-17T04:49:32;3.40;;;2.40;;
77262;SDS011;66373;52.334;4.806;2024-03-17T04:51:59;3.60;;;2.33;;
77262;SDS011;66373;52.334;4.806;2024-03-17T04:54:25;2.15;;;2.00;;
77262;SDS011;66373;52.334;4.806;2024-03-17T04:56:52;1.90;;;1.80;;
77262;SDS011;66373;52.334;4.806;2024-03-17T04:59:21;2.22;;;1.98;;
77262;SDS011;66373;52.334;4.806;2024-03-17T05:01:48;2.92;;;2.10;;
77262;SDS011;66373;52.334;4.806;2024-03-17T05:04:18;2.10;;;1.90;;
77262;SDS011;66373;52.334;4.806;2024-03-17T05:06:45;2.50;;;1.92;;
77262;SDS011;66373;52.334;4.806;2024-03-17T05:09:15;1.90;;;1.80;;
77262;SDS011;66373;52.334;4.806;2024-03-17T05:11:42;2.38;;;1.90;;
77262;SDS011;66373;52.334;4.806;2024-03-17T05:14:09;2.30;;;2.10;;
77262;SDS011;66373;52.334;4.806;2024-03-17T05:16:38;1.98;;;1.75;;
77262;SDS011;66373;52.334;4.806;2024-03-17T05:19:05;2.53;;;2.03;;
77262;SDS011;66373;52.334;4.806;2024-03-17T05:21:34;1.60;;;1.60;;
77262;SDS011;66373;52.334;4.806;2024-03-17T05:24:01;2.40;;;2.20;;
77262;SDS011;66373;52.334;4.806;2024-03-17T05:26:29;2.97;;;2.03;;
77262;SDS011;66373;52.334;4.806;2024-03-17T05:28:56;2.17;;;2.00;;
77262;SDS011;66373;52.334;4.806;2024-03-17T05:31:24;2.03;;;1.90;;
77262;SDS011;66373;52.334;4.806;2024-03-17T05:33:53;2.17;;;2.08;;
77262;SDS011;66373;52.334;4.806;2024-03-17T05:36:20;1.92;;;1.83;;
77262;SDS011;66373;52.334;4.806;2024-03-17T05:38:47;2.13;;;1.92;;
77262;SDS011;66373;52.334;4.806;2024-03-17T05:41:14;3.42;;;2.00;;
77262;SDS011;66373;52.334;4.806;2024-03-17T05:43:41;3.33;;;2.20;;
77262;SDS011;66373;52.334;4.806;2024-03-17T05:46:09;2.30;;;2.10;;
77262;SDS011;66373;52.334;4.806;2024-03-17T05:48:38;2.55;;;2.20;;
77262;SDS011;66373;52.334;4.806;2024-03-17T05:51:08;2.13;;;2.03;;
77262;SDS011;66373;52.334;4.806;2024-03-17T05:53:37;2.67;;;2.03;;
77262;SDS011;66373;52.334;4.806;2024-03-17T05:56:06;2.60;;;2.10;;
77262;SDS011;66373;52.334;4.806;2024-03-17T05:58:34;2.63;;;1.95;;
77262;SDS011;66373;52.334;4.806;2024-03-17T06:01:02;2.10;;;2.00;;
77262;SDS011;66373;52.334;4.806;2024-03-17T06:03:30;2.35;;;2.15;;
77262;SDS011;66373;52.334;4.806;2024-03-17T06:05:58;2.38;;;1.92;;
77262;SDS011;66373;52.334;4.806;2024-03-17T06:08:27;1.85;;;1.70;;
77262;SDS011;66373;52.334;4.806;2024-03-17T06:10:54;1.75;;;1.65;;
77262;SDS011;66373;52.334;4.806;2024-03-17T06:13:23;2.15;;;2.00;;
77262;SDS011;66373;52.334;4.806;2024-03-17T06:15:50;2.13;;;1.90;;
77262;SDS011;66373;52.334;4.806;2024-03-17T06:18:18;2.60;;;2.03;;
77262;SDS011;66373;52.334;4.806;2024-03-17T06:20:45;5.93;;;2.20;;
77262;SDS011;66373;52.334;4.806;2024-03-17T06:23:14;2.13;;;1.92;;
77262;SDS011;66373;52.334;4.806;2024-03-17T06:25:43;1.88;;;1.77;;
77262;SDS011;66373;52.334;4.806;2024-03-17T06:28:13;2.00;;;1.80;;
77262;SDS011;66373;52.334;4.806;2024-03-17T06:30:42;2.30;;;2.10;;
77262;SDS011;66373;52.334;4.806;2024-03-17T06:33:10;2.40;;;2.20;;
77262;SDS011;66373;52.334;4.806;2024-03-17T06:35:38;3.17;;;2.20;;
77262;SDS011;66373;52.334;4.806;2024-03-17T06:38:06;2.03;;;1.92;;
77262;SDS011;66373;52.334;4.806;2024-03-17T06:40:35;1.85;;;1.75;;
77262;SDS011;66373;52.334;4.806;2024-03-17T06:43:04;2.08;;;1.88;;
77262;SDS011;66373;52.334;4.806;2024-03-17T06:45:31;1.98;;;1.80;;
77262;SDS011;66373;52.334;4.806;2024-03-17T06:47:59;2.40;;;2.00;;
77262;SDS011;66373;52.334;4.806;2024-03-17T06:50:26;2.05;;;1.90;;
77262;SDS011;66373;52.334;4.806;2024-03-17T06:52:53;2.80;;;2.00;;
77262;SDS011;66373;52.334;4.806;2024-03-17T06:55:20;2.15;;;1.95;;
77262;SDS011;66373;52.334;4.806;2024-03-17T06:57:48;1.90;;;1.80;;
77262;SDS011;66373;52.334;4.806;2024-03-17T07:00:16;3.08;;;1.90;;
77262;SDS011;66373;52.334;4.806;2024-03-17T07:02:50;2.30;;;2.10;;
77262;SDS011;66373;52.334;4.806;2024-03-17T07:05:17;3.10;;;2.03;;
77262;SDS011;66373;52.334;4.806;2024-03-17T07:07:44;2.42;;;2.00;;
77262;SDS011;66373;52.334;4.806;2024-03-17T07:10:12;5.88;;;2.17;;
77262;SDS011;66373;52.334;4.806;2024-03-17T07:12:41;1.85;;;1.75;;
77262;SDS011;66373;52.334;4.806;2024-03-17T07:15:08;2.35;;;2.15;;
77262;SDS011;66373;52.334;4.806;2024-03-17T07:17:37;2.33;;;2.10;;
77262;SDS011;66373;52.334;4.806;2024-03-17T07:20:05;2.78;;;1.90;;
77262;SDS011;66373;52.334;4.806;2024-03-17T07:22:34;1.92;;;1.80;;
77262;SDS011;66373;52.334;4.806;2024-03-17T07:25:01;2.13;;;1.92;;
77262;SDS011;66373;52.334;4.806;2024-03-17T07:27:29;2.08;;;1.80;;
77262;SDS011;66373;52.334;4.806;2024-03-17T07:29:57;2.67;;;2.03;;
77262;SDS011;66373;52.334;4.806;2024-03-17T07:32:24;3.97;;;2.03;;
77262;SDS011;66373;52.334;4.806;2024-03-17T07:34:53;4.75;;;2.00;;
77262;SDS011;66373;52.334;4.806;2024-03-17T07:37:20;3.40;;;2.25;;
77262;SDS011;66373;52.334;4.806;2024-03-17T07:39:47;2.30;;;2.10;;
77262;SDS011;66373;52.334;4.806;2024-03-17T07:42:15;2.13;;;1.92;;
77262;SDS011;66373;52.334;4.806;2024-03-17T07:44:43;5.97;;;2.10;;
77262;SDS011;66373;52.334;4.806;2024-03-17T07:47:11;2.30;;;2.00;;
77262;SDS011;66373;52.334;4.806;2024-03-17T07:49:38;2.42;;;2.20;;
77262;SDS011;66373;52.334;4.806;2024-03-17T07:52:07;2.90;;;1.95;;
77262;SDS011;66373;52.334;4.806;2024-03-17T07:54:34;2.38;;;2.10;;
77262;SDS011;66373;52.334;4.806;2024-03-17T07:57:02;3.17;;;2.03;;
77262;SDS011;66373;52.334;4.806;2024-03-17T07:59:29;2.38;;;2.05;;
77262;SDS011;66373;52.334;4.806;2024-03-17T08:01:57;2.20;;;2.00;;
77262;SDS011;66373;52.334;4.806;2024-03-17T08:04:24;2.72;;;1.92;;
77262;SDS011;66373;52.334;4.806;2024-03-17T08:06:51;2.78;;;2.08;;
77262;SDS011;66373;52.334;4.806;2024-03-17T08:09:19;4.00;;;2.10;;
77262;SDS011;66373;52.334;4.806;2024-03-17T08:11:48;3.00;;;2.25;;
77262;SDS011;66373;52.334;4.806;2024-03-17T08:14:15;3.15;;;1.92;;
77262;SDS011;66373;52.334;4.806;2024-03-17T08:16:41;3.78;;;2.10;;
77262;SDS011;66373;52.334;4.806;2024-03-17T08:19:09;6.45;;;2.10;;
77262;SDS011;66373;52.334;4.806;2024-03-17T08:21:36;2.20;;;1.92;;
77262;SDS011;66373;52.334;4.806;2024-03-17T08:24:03;2.88;;;2.20;;
77262;SDS011;66373;52.334;4.806;2024-03-17T08:26:32;5.70;;;2.00;;
77262;SDS011;66373;52.334;4.806;2024-03-17T08:28:59;3.90;;;2.38;;
77262;SDS011;66373;52.334;4.806;2024-03-17T08:31:26;4.35;;;1.95;;
77262;SDS011;66373;52.334;4.806;2024-03-17T08:33:54;1.98;;;1.88;;
77262;SDS011;66373;52.334;4.806;2024-03-17T08:36:21;2.25;;;2.05;;
77262;SDS011;66373;52.334;4.806;2024-03-17T08:38:48;3.67;;;2.15;;
77262;SDS011;66373;52.334;4.806;2024-03-17T08:41:15;1.92;;;1.83;;
77262;SDS011;66373;52.334;4.806;2024-03-17T08:43:44;3.38;;;2.20;;
77262;SDS011;66373;52.334;4.806;2024-03-17T08:46:11;3.88;;;2.13;;
77262;SDS011;66373;52.334;4.806;2024-03-17T08:48:39;1.77;;;1.65;;
77262;SDS011;66373;52.334;4.806;2024-03-17T08:51:08;2.60;;;1.88;;
77262;SDS011;66373;52.334;4.806;2024-03-17T08:53:36;2.85;;;2.17;;
77262;SDS011;66373;52.334;4.806;2024-03-17T08:56:05;3.13;;;2.38;;
77262;SDS011;66373;52.334;4.806;2024-03-17T08:58:33;2.17;;;1.95;;
77262;SDS011;66373;52.334;4.806;2024-03-17T09:01:05;2.30;;;2.10;;
77262;SDS011;66373;52.334;4.806;2024-03-17T09:03:33;7.53;;;1.92;;
77262;SDS011;66373;52.334;4.806;2024-03-17T09:06:01;2.38;;;2.10;;
77262;SDS011;66373;52.334;4.806;2024-03-17T09:08:28;3.08;;;2.08;;
77262;SDS011;66373;52.334;4.806;2024-03-17T09:10:55;2.45;;;2.10;;
77262;SDS011;66373;52.334;4.806;2024-03-17T09:13:22;4.65;;;2.00;;
77262;SDS011;66373;52.334;4.806;2024-03-17T09:15:51;7.68;;;2.15;;
77262;SDS011;66373;52.334;4.806;2024-03-17T09:18:21;3.47;;;2.10;;
77262;SDS011;66373;52.334;4.806;2024-03-17T09:20:56;3.30;;;2.10;;
77262;SDS011;66373;52.334;4.806;2024-03-17T09:23:24;2.30;;;2.10;;
77262;SDS011;66373;52.334;4.806;2024-03-17T09:25:55;3.35;;;2.08;;
77262;SDS011;66373;52.334;4.806;2024-03-17T09:28:23;2.03;;;1.80;;
77262;SDS011;66373;52.334;4.806;2024-03-17T09:30:50;3.15;;;2.03;;
77262;SDS011;66373;52.334;4.806;2024-03-17T09:33:18;3.35;;;1.90;;
77262;SDS011;66373;52.334;4.806;2024-03-17T09:35:53;2.35;;;2.10;;
77262;SDS011;66373;52.334;4.806;2024-03-17T09:38:21;2.00;;;1.90;;
77262;SDS011;66373;52.334;4.806;2024-03-17T09:40:49;4.28;;;2.30;;
77262;SDS011;66373;52.334;4.806;2024-03-17T09:43:18;2.30;;;2.10;;
77262;SDS011;66373;52.334;4.806;2024-03-17T09:45:46;1.98;;;1.83;;
77262;SDS011;66373;52.334;4.806;2024-03-17T09:48:14;2.25;;;2.00;;
77262;SDS011;66373;52.334;4.806;2024-03-17T09:50:48;4.65;;;1.83;;
77262;SDS011;66373;52.334;4.806;2024-03-17T09:53:20;2.28;;;2.08;;
77262;SDS011;66373;52.334;4.806;2024-03-17T09:55:50;2.25;;;1.88;;
77262;SDS011;66373;52.334;4.806;2024-03-17T09:58:18;2.00;;;1.90;;
77262;SDS011;66373;52.334;4.806;2024-03-17T10:00:46;1.98;;;1.88;;
77262;SDS011;66373;52.334;4.806;2024-03-17T10:03:38;2.30;;;2.10;;
77262;SDS011;66373;52.334;4.806;2024-03-17T10:06:11;2.22;;;2.03;;
77262;SDS011;66373;52.334;4.806;2024-03-17T10:08:45;2.88;;;2.10;;
77262;SDS011;66373;52.334;4.806;2024-03-17T10:11:13;3.15;;;2.00;;
77262;SDS011;66373;52.334;4.806;2024-03-17T10:13:42;1.88;;;1.77;;
77262;SDS011;66373;52.334;4.806;2024-03-17T10:16:20;3.33;;;2.05;;
77262;SDS011;66373;52.334;4.806;2024-03-17T10:18:54;2.17;;;1.98;;
77262;SDS011;66373;52.334;4.806;2024-03-17T10:21:35;2.03;;;1.83;;
77262;SDS011;66373;52.334;4.806;2024-03-17T10:24:07;2.75;;;2.35;;
77262;SDS011;66373;52.334;4.806;2024-03-17T10:26:36;3.35;;;2.30;;
77262;SDS011;66373;52.334;4.806;2024-03-17T10:29:05;3.28;;;2.00;;
77262;SDS011;66373;52.334;4.806;2024-03-17T10:31:46;2.28;;;2.15;;
77262;SDS011;66373;52.334;4.806;2024-03-17T10:34:15;2.10;;;1.90;;
77262;SDS011;66373;52.334;4.806;2024-03-17T10:36:44;3.03;;;2.40;;
77262;SDS011;66373;52.334;4.806;2024-03-17T10:39:25;2.53;;;2.30;;
77262;SDS011;66373;52.334;4.806;2024-03-17T10:41:59;2.78;;;2.08;;
77262;SDS011;66373;52.334;4.806;2024-03-17T10:44:27;2.35;;;2.20;;
77262;SDS011;66373;52.334;4.806;2024-03-17T10:46:56;4.32;;;2.28;;
77262;SDS011;66373;52.334;4.806;2024-03-17T10:49:27;3.17;;;2.60;;
77262;SDS011;66373;52.334;4.806;2024-03-17T10:51:57;2.63;;;2.42;;
77262;SDS011;66373;52.334;4.806;2024-03-17T10:54:25;3.15;;;2.63;;
77262;SDS011;66373;52.334;4.806;2024-03-17T10:56:54;4.28;;;2.72;;
77262;SDS011;66373;52.334;4.806;2024-03-17T10:59:25;4.55;;;2.83;;
77262;SDS011;66373;52.334;4.806;2024-03-17T11:02:05;10.80;;;4.90;;
77262;SDS011;66373;52.334;4.806;2024-03-17T11:04:52;8.68;;;4.28;;
77262;SDS011;66373;52.334;4.806;2024-03-17T11:07:20;7.00;;;3.50;;
77262;SDS011;66373;52.334;4.806;2024-03-17T11:09:48;8.07;;;4.13;;
77262;SDS011;66373;52.334;4.806;2024-03-17T11:21:04;14.02;;;5.63;;
77262;SDS011;66373;52.334;4.806;2024-03-17T11:23:41;13.55;;;5.32;;
77262;SDS011;66373;52.334;4.806;2024-03-17T11:26:10;16.25;;;6.60;;
77262;SDS011;66373;52.334;4.806;2024-03-17T11:31:33;19.02;;;7.68;;
77262;SDS011;66373;52.334;4.806;2024-03-17T11:34:02;15.15;;;7.13;;
77262;SDS011;66373;52.334;4.806;2024-03-17T11:36:35;19.60;;;7.93;;
77262;SDS011;66373;52.334;4.806;2024-03-17T11:39:04;25.23;;;9.00;;
77262;SDS011;66373;52.334;4.806;2024-03-17T11:41:42;25.65;;;9.10;;
77262;SDS011;66373;52.334;4.806;2024-03-17T11:46:59;29.95;;;9.10;;
77262;SDS011;66373;52.334;4.806;2024-03-17T11:49:28;26.88;;;10.27;;
77262;SDS011;66373;52.334;4.806;2024-03-17T11:51:58;29.02;;;11.50;;
77262;SDS011;66373;52.334;4.806;2024-03-17T11:54:26;29.80;;;11.20;;
77262;SDS011;66373;52.334;4.806;2024-03-17T11:56:55;32.17;;;11.73;;
77262;SDS011;66373;52.334;4.806;2024-03-17T11:59:26;33.13;;;12.38;;
77262;SDS011;66373;52.334;4.806;2024-03-17T12:01:53;38.80;;;13.13;;
77262;SDS011;66373;52.334;4.806;2024-03-17T12:04:19;35.22;;;12.50;;
77262;SDS011;66373;52.334;4.806;2024-03-17T12:06:48;39.72;;;14.55;;
77262;SDS011;66373;52.334;4.806;2024-03-17T12:09:19;36.85;;;13.77;;
77262;SDS011;66373;52.334;4.806;2024-03-17T12:14:15;41.10;;;15.30;;
77262;SDS011;66373;52.334;4.806;2024-03-17T12:16:48;42.13;;;16.35;;
77262;SDS011;66373;52.334;4.806;2024-03-17T12:19:15;44.42;;;16.42;;
77262;SDS011;66373;52.334;4.806;2024-03-17T12:21:43;43.17;;;17.20;;
77262;SDS011;66373;52.334;4.806;2024-03-17T12:24:13;45.17;;;16.25;;
77262;SDS011;66373;52.334;4.806;2024-03-17T12:26:44;44.53;;;16.17;;
77262;SDS011;66373;52.334;4.806;2024-03-17T12:29:22;43.20;;;16.25;;
77262;SDS011;66373;52.334;4.806;2024-03-17T12:31:50;42.95;;;15.77;;
77262;SDS011;66373;52.334;4.806;2024-03-17T12:34:18;41.78;;;16.35;;
77262;SDS011;66373;52.334;4.806;2024-03-17T12:36:45;42.13;;;16.83;;
77262;SDS011;66373;52.334;4.806;2024-03-17T12:39:17;43.80;;;15.73;;
77262;SDS011;66373;52.334;4.806;2024-03-17T12:41:52;45.50;;;17.02;;
77262;SDS011;66373;52.334;4.806;2024-03-17T12:44:28;46.92;;;16.42;;
77262;SDS011;66373;52.334;4.806;2024-03-17T12:46:55;49.53;;;17.70;;
77262;SDS011;66373;52.334;4.806;2024-03-17T12:49:23;46.28;;;17.38;;
77262;SDS011;66373;52.334;4.806;2024-03-17T12:51:52;46.45;;;16.73;;
77262;SDS011;66373;52.334;4.806;2024-03-17T12:54:20;48.70;;;17.60;;
77262;SDS011;66373;52.334;4.806;2024-03-17T12:56:50;47.90;;;17.02;;
77262;SDS011;66373;52.334;4.806;2024-03-17T12:59:38;46.92;;;17.05;;
77262;SDS011;66373;52.334;4.806;2024-03-17T13:02:33;45.92;;;17.58;;
77262;SDS011;66373;52.334;4.806;2024-03-17T13:07:43;42.28;;;16.55;;
77262;SDS011;66373;52.334;4.806;2024-03-17T13:10:12;46.25;;;16.52;;
77262;SDS011;66373;52.334;4.806;2024-03-17T13:12:41;50.67;;;17.45;;
77262;SDS011;66373;52.334;4.806;2024-03-17T13:15:09;50.67;;;17.98;;
77262;SDS011;66373;52.334;4.806;2024-03-17T13:17:38;40.75;;;17.13;;
77262;SDS011;66373;52.334;4.806;2024-03-17T13:20:06;43.35;;;16.08;;
77262;SDS011;66373;52.334;4.806;2024-03-17T13:25:08;42.95;;;15.95;;
77262;SDS011;66373;52.334;4.806;2024-03-17T13:27:37;46.65;;;16.77;;
77262;SDS011;66373;52.334;4.806;2024-03-17T13:30:06;45.72;;;17.30;;
77262;SDS011;66373;52.334;4.806;2024-03-17T13:32:34;46.83;;;17.25;;
77262;SDS011;66373;52.334;4.806;2024-03-17T13:35:02;43.50;;;17.10;;
77262;SDS011;66373;52.334;4.806;2024-03-17T13:37:30;41.65;;;17.20;;
77262;SDS011;66373;52.334;4.806;2024-03-17T13:39:57;45.53;;;17.63;;
77262;SDS011;66373;52.334;4.806;2024-03-17T13:42:27;45.10;;;17.35;;
77262;SDS011;66373;52.334;4.806;2024-03-17T13:44:54;44.60;;;16.85;;
77262;SDS011;66373;52.334;4.806;2024-03-17T13:47:23;49.17;;;17.20;;
77262;SDS011;66373;52.334;4.806;2024-03-17T13:49:50;40.05;;;16.52;;
77262;SDS011;66373;52.334;4.806;2024-03-17T13:52:17;44.25;;;17.50;;
77262;SDS011;66373;52.334;4.806;2024-03-17T13:54:45;42.50;;;16.38;;
77262;SDS011;66373;52.334;4.806;2024-03-17T13:57:13;44.15;;;16.02;;
77262;SDS011;66373;52.334;4.806;2024-03-17T13:59:41;38.30;;;16.50;;
77262;SDS011;66373;52.334;4.806;2024-03-17T14:02:08;42.47;;;15.32;;
77262;SDS011;66373;52.334;4.806;2024-03-17T14:04:41;36.78;;;15.68;;
77262;SDS011;66373;52.334;4.806;2024-03-17T14:07:08;40.78;;;17.05;;
77262;SDS011;66373;52.334;4.806;2024-03-17T14:09:35;37.33;;;14.35;;
77262;SDS011;66373;52.334;4.806;2024-03-17T14:12:03;38.38;;;14.68;;
77262;SDS011;66373;52.334;4.806;2024-03-17T14:14:30;28.90;;;13.70;;
77262;SDS011;66373;52.334;4.806;2024-03-17T14:16:57;36.65;;;14.75;;
77262;SDS011;66373;52.334;4.806;2024-03-17T14:19:25;33.95;;;14.10;;
77262;SDS011;66373;52.334;4.806;2024-03-17T14:21:53;39.67;;;15.23;;
77262;SDS011;66373;52.334;4.806;2024-03-17T14:24:21;32.83;;;13.15;;
77262;SDS011;66373;52.334;4.806;2024-03-17T14:26:48;33.10;;;14.18;;
77262;SDS011;66373;52.334;4.806;2024-03-17T14:29:15;30.88;;;13.02;;
77262;SDS011;66373;52.334;4.806;2024-03-17T14:31:43;34.72;;;13.77;;
77262;SDS011;66373;52.334;4.806;2024-03-17T14:34:11;33.78;;;13.18;;
77262;SDS011;66373;52.334;4.806;2024-03-17T14:36:38;30.75;;;12.70;;
77262;SDS011;66373;52.334;4.806;2024-03-17T14:39:06;34.92;;;14.05;;
77262;SDS011;66373;52.334;4.806;2024-03-17T14:41:34;34.13;;;13.60;;
77262;SDS011;66373;52.334;4.806;2024-03-17T14:44:01;30.90;;;12.35;;
77262;SDS011;66373;52.334;4.806;2024-03-17T14:46:29;27.25;;;12.48;;
77262;SDS011;66373;52.334;4.806;2024-03-17T14:48:57;30.00;;;12.63;;
77262;SDS011;66373;52.334;4.806;2024-03-17T14:51:24;34.53;;;12.98;;
77262;SDS011;66373;52.334;4.806;2024-03-17T14:53:51;31.15;;;12.23;;
77262;SDS011;66373;52.334;4.806;2024-03-17T14:56:20;28.25;;;12.15;;
77262;SDS011;66373;52.334;4.806;2024-03-17T14:58:47;31.65;;;12.18;;
77262;SDS011;66373;52.334;4.806;2024-03-17T15:01:16;24.80;;;11.45;;
77262;SDS011;66373;52.334;4.806;2024-03-17T15:03:44;27.65;;;11.90;;
77262;SDS011;66373;52.334;4.806;2024-03-17T15:06:11;27.08;;;11.82;;
77262;SDS011;66373;52.334;4.806;2024-03-17T15:08:40;28.60;;;11.43;;
77262;SDS011;66373;52.334;4.806;2024-03-17T15:11:07;25.80;;;11.43;;